Time;durP1;ratioP1;P1;durP2;ratioP2;P2;SDS_P1;SDS_P2;PMS_P1;PMS_P2;Temp;Humidity;BMP_temperature;BMP_pressure;BME280_temperature;BME280_humidity;BME280_pressure;Samples;Min_cycle;Max_cycle;Signal;HPM_P1;HPM_P2
2023/07/30 00:01:57;;;;;;;0.70;0.70;;;15.90;99.90;;;;;;5083876;28;20055;-84
2023/07/30 00:04:23;;;;;;;0.73;0.73;;;15.90;99.90;;;;;;5091008;27;20377;-86
2023/07/30 00:06:49;;;;;;;0.70;0.70;;;15.90;99.90;;;;;;5066060;28;20052;-83
2023/07/30 00:09:14;;;;;;;0.70;0.70;;;15.90;99.90;;;;;;5103620;27;20132;-84
2023/07/30 00:11:40;;;;;;;0.70;0.70;;;15.90;99.90;;;;;;5088263;28;20047;-84
2023/07/30 00:14:06;;;;;;;0.70;0.70;;;16.00;99.90;;;;;;5078289;27;20560;-83
2023/07/30 00:16:31;;;;;;;0.70;0.70;;;16.00;99.90;;;;;;5086291;28;20465;-83
2023/07/30 00:18:57;;;;;;;0.77;0.77;;;15.90;99.90;;;;;;5082039;28;20130;-84
2023/07/30 00:21:23;;;;;;;0.75;0.75;;;16.00;99.90;;;;;;5088269;27;20134;-83
2023/07/30 00:23:49;;;;;;;0.70;0.70;;;15.80;99.90;;;;;;5084667;28;20062;-85
2023/07/30 00:26:14;;;;;;;0.73;0.73;;;15.70;99.90;;;;;;5063728;28;20408;-83
2023/07/30 00:28:40;;;;;;;0.65;0.65;;;15.70;99.90;;;;;;5086660;28;20046;-83
2023/07/30 00:31:06;;;;;;;0.70;0.70;;;15.70;99.90;;;;;;5083162;28;20051;-84
2023/07/30 00:33:31;;;;;;;0.73;0.73;;;15.70;99.90;;;;;;5079062;28;20128;-84
2023/07/30 00:35:57;;;;;;;0.73;0.73;;;15.70;99.90;;;;;;5064159;28;20047;-85
2023/07/30 00:38:23;;;;;;;0.75;0.75;;;15.50;99.90;;;;;;5080827;28;20043;-84
2023/07/30 00:40:49;;;;;;;0.70;0.70;;;15.50;99.90;;;;;;5074961;28;20044;-84
2023/07/30 00:43:14;;;;;;;0.70;0.70;;;15.50;99.90;;;;;;5078155;28;20067;-85
2023/07/30 00:45:43;;;;;;;0.75;0.75;;;15.70;99.90;;;;;;5078659;28;20048;-83
2023/07/30 00:48:10;;;;;;;0.70;0.70;;;15.50;99.90;;;;;;5082663;28;20055;-86
2023/07/30 00:50:36;;;;;;;0.80;0.80;;;15.60;99.90;;;;;;5078573;28;20058;-84
2023/07/30 00:53:02;;;;;;;0.80;0.80;;;15.50;99.90;;;;;;5065935;28;20048;-84
2023/07/30 00:55:28;;;;;;;0.80;0.80;;;15.60;99.90;;;;;;5085069;28;20695;-85
2023/07/30 00:57:53;;;;;;;0.80;0.80;;;15.40;99.90;;;;;;5064886;28;20087;-84
2023/07/30 01:00:20;;;;;;;0.80;0.80;;;15.30;99.90;;;;;;5079717;28;20122;-87
2023/07/30 01:02:45;;;;;;;0.80;0.80;;;15.30;99.90;;;;;;5083849;28;20561;-86
2023/07/30 01:05:11;;;;;;;0.80;0.80;;;15.30;99.90;;;;;;5083543;28;20039;-84
2023/07/30 01:07:36;;;;;;;0.80;0.80;;;15.30;99.90;;;;;;5082568;28;20524;-86
2023/07/30 01:10:03;;;;;;;0.80;0.80;;;15.40;99.90;;;;;;5080246;28;20475;-86
2023/07/30 01:12:31;;;;;;;0.85;0.85;;;15.40;99.90;;;;;;5071926;28;20040;-86
2023/07/30 01:14:58;;;;;;;0.80;0.80;;;15.30;99.90;;;;;;5064606;28;20412;-89
2023/07/30 01:17:23;;;;;;;0.85;0.85;;;15.30;99.90;;;;;;5074670;28;20664;-90
2023/07/30 01:19:49;;;;;;;0.80;0.80;;;15.20;99.90;;;;;;5086488;28;20069;-85
2023/07/30 01:22:16;;;;;;;0.82;0.82;;;15.20;99.90;;;;;;5079717;28;20047;-87
2023/07/30 01:24:42;;;;;;;0.80;0.80;;;15.30;99.90;;;;;;5084901;28;20048;-86
2023/07/30 01:27:10;;;;;;;0.80;0.80;;;15.30;99.90;;;;;;5084482;28;20088;-88
2023/07/30 01:29:36;;;;;;;0.80;0.80;;;15.20;99.90;;;;;;5083153;28;20394;-87
2023/07/30 01:32:06;;;;;;;0.80;0.80;;;15.20;99.90;;;;;;5082588;28;20050;-86
2023/07/30 01:34:37;;;;;;;0.70;0.70;;;15.30;99.90;;;;;;5080520;28;20047;-86
2023/07/30 01:37:04;;;;;;;0.70;0.70;;;15.20;99.90;;;;;;5066971;28;20503;-87
2023/07/30 01:39:31;;;;;;;0.80;0.80;;;15.20;99.90;;;;;;5080969;28;20055;-86
2023/07/30 01:41:57;;;;;;;0.77;0.77;;;15.30;99.90;;;;;;5080538;28;20040;-85
2023/07/30 01:44:23;;;;;;;0.80;0.80;;;15.10;99.90;;;;;;5082020;28;20127;-87
2023/07/30 01:46:49;;;;;;;0.80;0.80;;;15.10;99.90;;;;;;5081506;28;20109;-86
2023/07/30 01:49:14;;;;;;;0.80;0.80;;;15.00;99.90;;;;;;5082237;28;20078;-86
2023/07/30 01:51:40;;;;;;;0.80;0.80;;;15.00;99.90;;;;;;5085385;28;20393;-86
2023/07/30 01:54:06;;;;;;;0.80;0.80;;;15.00;99.90;;;;;;5060678;28;20169;-86
2023/07/30 01:56:31;;;;;;;0.80;0.80;;;14.90;99.90;;;;;;5083430;28;20122;-86
2023/07/30 01:58:57;;;;;;;0.80;0.80;;;14.90;99.90;;;;;;5081302;28;20047;-86
2023/07/30 02:01:23;;;;;;;0.80;0.80;;;15.00;99.90;;;;;;5084256;28;20047;-87
2023/07/30 02:03:48;;;;;;;0.80;0.80;;;14.90;99.90;;;;;;5069164;28;20046;-86
2023/07/30 02:06:14;;;;;;;0.80;0.80;;;15.00;99.90;;;;;;5083005;28;20499;-86
2023/07/30 02:08:40;;;;;;;0.80;0.80;;;14.90;99.90;;;;;;5086371;28;20040;-87
2023/07/30 02:11:06;;;;;;;0.80;0.80;;;15.00;99.90;;;;;;5086668;28;20043;-85
2023/07/30 02:13:31;;;;;;;0.90;0.90;;;14.90;99.90;;;;;;5070356;28;20388;-89
2023/07/30 02:15:57;;;;;;;0.80;0.80;;;14.90;99.90;;;;;;5081450;28;20101;-87
2023/07/30 02:18:22;;;;;;;0.80;0.80;;;14.90;99.90;;;;;;5065804;28;20043;-86
2023/07/30 02:20:48;;;;;;;0.90;0.90;;;14.90;99.90;;;;;;5100160;28;20042;-87
2023/07/30 02:23:18;;;;;;;0.82;0.82;;;14.90;99.90;;;;;;5068343;28;20044;-89
2023/07/30 02:25:43;;;;;;;0.80;0.80;;;14.80;99.90;;;;;;5083462;28;20046;-88
2023/07/30 02:28:09;;;;;;;0.88;0.88;;;14.80;99.90;;;;;;5083460;28;20040;-86
2023/07/30 02:30:35;;;;;;;0.90;0.90;;;14.70;99.90;;;;;;5066714;28;20100;-87
2023/07/30 02:33:01;;;;;;;0.90;0.90;;;14.70;99.90;;;;;;5085566;28;20040;-89
2023/07/30 02:35:27;;;;;;;0.90;0.90;;;14.80;99.90;;;;;;5073601;28;20059;-86
2023/07/30 02:37:53;;;;;;;0.82;0.82;;;14.60;99.90;;;;;;5089137;28;20389;-89
2023/07/30 02:40:18;;;;;;;0.90;0.90;;;14.60;99.90;;;;;;5088963;28;20067;-87
2023/07/30 02:42:44;;;;;;;0.85;0.85;;;14.70;99.90;;;;;;5067737;28;20112;-91
2023/07/30 02:45:10;;;;;;;1.00;1.00;;;14.60;99.90;;;;;;5090517;28;20571;-88
2023/07/30 02:47:36;;;;;;;0.90;0.90;;;14.60;99.90;;;;;;5074126;27;20061;-86
2023/07/30 02:50:05;;;;;;;0.90;0.90;;;14.70;99.90;;;;;;5072828;28;20040;-88
2023/07/30 02:52:31;;;;;;;0.85;0.85;;;14.60;99.90;;;;;;5068764;28;20039;-87
2023/07/30 02:54:57;;;;;;;0.80;0.80;;;14.70;99.90;;;;;;5089916;28;20415;-89
2023/07/30 02:57:23;;;;;;;0.85;0.85;;;14.70;99.90;;;;;;5068857;28;20031;-88
2023/07/30 02:59:48;;;;;;;0.90;0.90;;;14.70;99.90;;;;;;5071644;28;20101;-86
2023/07/30 03:02:14;;;;;;;0.95;0.95;;;14.50;99.90;;;;;;5071864;28;20086;-87
2023/07/30 03:04:40;;;;;;;0.90;0.90;;;14.50;99.90;;;;;;5092006;28;20036;-91
2023/07/30 03:07:06;;;;;;;1.00;1.00;;;14.60;99.90;;;;;;5087977;28;20044;-89
2023/07/30 03:09:32;;;;;;;0.98;0.98;;;14.70;99.90;;;;;;5074063;28;20043;-88
2023/07/30 03:11:59;;;;;;;1.00;1.00;;;14.60;99.90;;;;;;5071207;28;20047;-87
2023/07/30 03:14:24;;;;;;;0.90;0.90;;;14.60;99.90;;;;;;5091216;28;20090;-88
2023/07/30 03:16:50;;;;;;;1.00;1.00;;;14.60;99.90;;;;;;5073928;28;20047;-90
2023/07/30 03:19:16;;;;;;;0.90;0.90;;;14.60;99.90;;;;;;5090305;28;20465;-88
2023/07/30 03:21:42;;;;;;;1.00;1.00;;;14.40;99.90;;;;;;5088212;28;20509;-88
2023/07/30 03:24:08;;;;;;;1.08;1.08;;;14.60;99.90;;;;;;5084847;28;20649;-88
2023/07/30 03:26:34;;;;;;;1.00;1.00;;;14.40;99.90;;;;;;5073160;27;20067;-87
2023/07/30 03:28:59;;;;;;;1.00;1.00;;;14.50;99.90;;;;;;5072445;28;20074;-88
2023/07/30 03:31:25;;;;;;;1.10;1.10;;;14.50;99.90;;;;;;5088867;28;20047;-86
2023/07/30 03:33:51;;;;;;;1.10;1.10;;;14.50;99.90;;;;;;5085545;28;20617;-86
2023/07/30 03:36:17;;;;;;;1.10;1.10;;;14.50;99.90;;;;;;5088267;28;20035;-90
2023/07/30 03:38:43;;;;;;;1.10;1.10;;;14.60;99.90;;;;;;5086842;28;20075;-89
2023/07/30 03:41:10;;;;;;;1.10;1.10;;;14.40;99.90;;;;;;5071791;28;20055;-87
2023/07/30 03:43:36;;;;;;;1.15;1.15;;;14.60;99.90;;;;;;5089305;28;20066;-87
2023/07/30 03:46:02;;;;;;;1.10;1.10;;;14.40;99.90;;;;;;5088932;28;20047;-88
2023/07/30 03:48:30;;;;;;;1.10;1.10;;;14.40;99.90;;;;;;5072486;28;20061;-88
2023/07/30 03:50:56;;;;;;;1.10;1.10;;;14.60;99.90;;;;;;5070164;28;20093;-85
2023/07/30 03:53:22;;;;;;;1.08;1.08;;;14.60;99.90;;;;;;5071639;28;20046;-87
2023/07/30 03:55:48;;;;;;;1.20;1.20;;;14.60;99.90;;;;;;5087174;28;20048;-87
2023/07/30 03:58:14;;;;;;;1.15;1.15;;;14.60;99.90;;;;;;5071147;28;20820;-87
2023/07/30 04:00:40;;;;;;;1.30;1.30;;;14.40;99.90;;;;;;5088467;28;20050;-89
2023/07/30 04:03:06;;;;;;;1.20;1.20;;;14.50;99.90;;;;;;5086157;28;20048;-87
2023/07/30 04:05:32;;;;;;;1.20;1.20;;;14.50;99.90;;;;;;5073024;28;20392;-89
2023/07/30 04:07:57;;;;;;;1.20;1.20;;;14.60;99.90;;;;;;5073801;28;20051;-87
2023/07/30 04:10:23;;;;;;;1.27;1.27;;;14.50;99.90;;;;;;5070883;27;20035;-87
2023/07/30 04:12:49;;;;;;;1.20;1.20;;;14.40;99.90;;;;;;5088108;28;21529;-88
2023/07/30 04:15:15;;;;;;;1.27;1.27;;;14.50;99.90;;;;;;5071048;28;20044;-89
2023/07/30 04:17:41;;;;;;;1.20;1.20;;;14.40;99.90;;;;;;5069098;28;20128;-88
2023/07/30 04:20:09;;;;;;;1.25;1.25;;;14.60;99.90;;;;;;5070377;28;20649;-87
2023/07/30 04:22:36;;;;;;;1.27;1.27;;;14.40;99.90;;;;;;5073094;28;20050;-89
2023/07/30 04:25:01;;;;;;;1.17;1.17;;;14.50;99.90;;;;;;5084805;28;20393;-88
2023/07/30 04:27:27;;;;;;;1.23;1.23;;;14.60;99.90;;;;;;5071910;28;20072;-86
2023/07/30 04:29:53;;;;;;;1.20;1.20;;;14.50;99.90;;;;;;5071107;28;20048;-88
2023/07/30 04:32:18;;;;;;;1.17;1.17;;;14.50;99.90;;;;;;5086303;28;20058;-92
2023/07/30 04:34:44;;;;;;;1.05;1.05;;;14.70;99.90;;;;;;5071033;28;20047;-86
2023/07/30 04:37:10;;;;;;;1.13;1.13;;;14.70;99.90;;;;;;5089058;28;20400;-89
2023/07/30 04:39:36;;;;;;;1.10;1.10;;;14.70;99.90;;;;;;5070805;27;20131;-89
2023/07/30 04:42:02;;;;;;;1.08;1.08;;;14.90;99.90;;;;;;5073401;28;20043;-88
2023/07/30 04:44:28;;;;;;;1.10;1.10;;;14.90;99.90;;;;;;5086087;28;20040;-87
2023/07/30 04:46:54;;;;;;;1.10;1.10;;;14.80;99.90;;;;;;5072291;28;20159;-88
2023/07/30 04:49:19;;;;;;;0.90;0.90;;;15.10;99.90;;;;;;5070869;28;20108;-88
2023/07/30 04:51:45;;;;;;;1.00;1.00;;;15.10;99.90;;;;;;5084984;28;20398;-88
2023/07/30 04:54:11;;;;;;;1.00;1.00;;;15.00;99.90;;;;;;5074838;27;20051;-88
2023/07/30 04:56:37;;;;;;;1.00;1.00;;;15.10;99.90;;;;;;5070139;28;20051;-86
2023/07/30 04:59:03;;;;;;;1.02;1.02;;;15.00;99.90;;;;;;5085526;28;20097;-89
2023/07/30 05:01:29;;;;;;;0.93;0.93;;;15.00;99.90;;;;;;5087804;28;20452;-88
2023/07/30 05:03:55;;;;;;;1.00;1.00;;;15.30;99.90;;;;;;5085350;28;20511;-92
2023/07/30 05:06:21;;;;;;;0.93;0.93;;;15.30;99.90;;;;;;5073871;28;20122;-88
2023/07/30 05:08:46;;;;;;;1.00;1.00;;;15.30;99.90;;;;;;5087445;28;20039;-91
2023/07/30 05:11:12;;;;;;;1.00;1.00;;;15.20;99.90;;;;;;5072092;28;20101;-87
2023/07/30 05:13:38;;;;;;;0.90;0.90;;;15.30;99.90;;;;;;5086935;28;20047;-85
2023/07/30 05:16:03;;;;;;;0.90;0.90;;;15.40;99.90;;;;;;5086549;28;20051;-90
2023/07/30 05:18:29;;;;;;;0.90;0.90;;;15.50;99.90;;;;;;5069772;28;20488;-89
2023/07/30 05:20:55;;;;;;;0.95;0.95;;;15.70;99.90;;;;;;5088072;28;20039;-87
2023/07/30 05:23:22;;;;;;;0.90;0.90;;;15.60;99.90;;;;;;5086944;28;20052;-90
2023/07/30 05:25:47;;;;;;;0.90;0.90;;;16.60;99.90;;;;;;5087515;28;20089;-88
2023/07/30 05:28:13;;;;;;;0.90;0.90;;;16.70;99.90;;;;;;5086080;28;20039;-87
2023/07/30 05:30:39;;;;;;;0.90;0.90;;;16.70;99.90;;;;;;5086564;28;20082;-88
2023/07/30 05:33:05;;;;;;;0.80;0.80;;;16.30;99.90;;;;;;5083141;28;20044;-86
2023/07/30 05:35:31;;;;;;;0.90;0.90;;;16.20;99.90;;;;;;5086858;28;20039;-87
2023/07/30 05:37:56;;;;;;;1.10;1.10;;;16.10;99.90;;;;;;5069618;28;20407;-85
2023/07/30 05:40:22;;;;;;;1.00;1.00;;;16.10;99.90;;;;;;5084265;28;20122;-84
2023/07/30 05:42:48;;;;;;;0.90;0.90;;;16.00;99.90;;;;;;5083714;28;20056;-87
2023/07/30 05:45:14;;;;;;;1.10;1.10;;;16.00;99.90;;;;;;5087098;28;20377;-88
2023/07/30 05:47:40;;;;;;;0.90;0.90;;;16.10;99.90;;;;;;5083921;28;20098;-90
2023/07/30 05:50:07;;;;;;;1.00;1.00;;;16.00;99.90;;;;;;5085297;28;20043;-84
2023/07/30 05:52:33;;;;;;;1.08;1.08;;;16.00;99.90;;;;;;5077386;28;20187;-89
2023/07/30 05:54:59;;;;;;;1.02;1.02;;;16.20;99.90;;;;;;5063794;28;20051;-85
2023/07/30 05:57:25;;;;;;;1.00;1.00;;;16.20;99.90;;;;;;5067176;28;20503;-87
2023/07/30 05:59:50;;;;;;;0.80;0.80;;;16.30;99.90;;;;;;5086182;28;20059;-88
2023/07/30 06:02:17;;;;;;;0.80;0.80;;;16.20;99.90;;;;;;5083220;28;20047;-82
2023/07/30 06:04:43;;;;;;;0.80;0.80;;;16.40;99.90;;;;;;5082502;28;20105;-86
2023/07/30 06:07:08;;;;;;;0.90;0.90;;;16.40;99.90;;;;;;5085151;28;20458;-85
2023/07/30 06:09:34;;;;;;;0.95;0.95;;;16.60;99.90;;;;;;5084465;28;20047;-87
2023/07/30 06:12:00;;;;;;;0.70;0.70;;;16.70;99.90;;;;;;5081382;28;20058;-86
2023/07/30 06:14:26;;;;;;;0.85;0.85;;;16.70;99.90;;;;;;5085385;28;20062;-88
2023/07/30 06:16:53;;;;;;;0.90;0.90;;;16.60;99.90;;;;;;5100247;28;20463;-85
2023/07/30 06:19:19;;;;;;;0.80;0.80;;;16.80;99.90;;;;;;5064575;28;20065;-86
2023/07/30 06:21:45;;;;;;;0.80;0.80;;;16.70;99.90;;;;;;5096905;28;20040;-90
2023/07/30 06:24:11;;;;;;;0.80;0.80;;;16.70;99.90;;;;;;5083143;28;20131;-91
2023/07/30 06:26:36;;;;;;;0.90;0.90;;;16.70;99.90;;;;;;5087165;28;20127;-88
2023/07/30 06:29:02;;;;;;;0.82;0.82;;;16.80;99.90;;;;;;5077857;28;20110;-87
2023/07/30 06:31:28;;;;;;;0.70;0.70;;;16.70;99.90;;;;;;5063125;28;20044;-91
2023/07/30 06:33:53;;;;;;;1.08;1.08;;;16.70;99.90;;;;;;5078519;28;20042;-88
2023/07/30 06:36:19;;;;;;;0.80;0.80;;;16.90;99.90;;;;;;5083835;28;20581;-87
2023/07/30 06:38:45;;;;;;;0.80;0.80;;;17.20;99.90;;;;;;5066765;28;20043;-88
2023/07/30 06:41:10;;;;;;;1.00;1.00;;;17.30;99.90;;;;;;5067282;28;20427;-88
2023/07/30 06:43:36;;;;;;;0.90;0.90;;;17.60;99.90;;;;;;5068617;28;20108;-86
2023/07/30 06:46:02;;;;;;;1.23;1.23;;;17.60;99.90;;;;;;5092834;28;20044;-88
2023/07/30 06:48:30;;;;;;;1.00;1.00;;;17.60;99.90;;;;;;5066620;28;20054;-92
2023/07/30 06:50:57;;;;;;;0.80;0.80;;;17.70;99.90;;;;;;5082489;28;20154;-85
2023/07/30 06:53:23;;;;;;;1.20;1.20;;;17.70;99.90;;;;;;5084956;28;20043;-85
2023/07/30 06:55:48;;;;;;;1.30;1.30;;;17.80;99.90;;;;;;5085442;28;20056;-91
2023/07/30 06:58:14;;;;;;;1.20;1.20;;;17.80;99.90;;;;;;5067481;28;20047;-85
2023/07/30 07:00:40;;;;;;;1.13;1.13;;;17.80;99.90;;;;;;5077292;28;20047;-90
2023/07/30 07:03:05;;;;;;;1.55;1.45;;;17.80;99.90;;;;;;5082041;28;20069;-89
2023/07/30 07:05:31;;;;;;;1.50;1.40;;;17.70;99.90;;;;;;5084509;28;20058;-90
2023/07/30 07:07:57;;;;;;;1.50;1.40;;;17.70;99.90;;;;;;5084879;28;20040;-87
2023/07/30 07:10:26;;;;;;;1.10;1.10;;;17.60;99.90;;;;;;5086597;28;20070;-94
2023/07/30 07:12:51;;;;;;;1.10;1.10;;;17.80;99.90;;;;;;5068808;28;20039;-84
2023/07/30 07:15:32;;;;;;;1.30;1.30;;;18.00;99.90;;;;;;5087288;28;20390;-96
2023/07/30 07:17:58;;;;;;;1.30;1.30;;;18.00;99.90;;;;;;5072386;28;20048;-89
2023/07/30 07:20:23;;;;;;;1.63;1.52;;;18.30;99.90;;;;;;5087174;28;20044;-90
2023/07/30 07:22:49;;;;;;;1.60;1.50;;;18.50;99.90;;;;;;5074133;28;20096;-85
2023/07/30 07:25:18;;;;;;;1.80;1.70;;;18.80;99.90;;;;;;5072678;28;20044;-87
2023/07/30 07:27:44;;;;;;;1.88;1.77;;;18.80;99.90;;;;;;5087262;28;20063;-88
2023/07/30 07:30:19;;;;;;;1.80;1.70;;;18.90;99.90;;;;;;5093426;28;20120;-94
2023/07/30 07:32:45;;;;;;;1.90;1.80;;;19.00;99.90;;;;;;5072367;28;20114;-85
2023/07/30 07:35:10;;;;;;;2.08;1.98;;;19.00;99.90;;;;;;5088288;28;20206;-88
2023/07/30 07:37:39;;;;;;;2.00;1.90;;;18.80;99.90;;;;;;5085522;28;20115;-89
2023/07/30 07:40:08;;;;;;;1.95;1.85;;;18.80;99.90;;;;;;5088701;28;20047;-90
2023/07/30 07:42:37;;;;;;;1.83;1.73;;;18.70;99.90;;;;;;5071626;28;20094;-85
2023/07/30 07:45:03;;;;;;;1.73;1.63;;;18.70;99.90;;;;;;5086527;27;20046;-86
2023/07/30 07:47:29;;;;;;;1.73;1.63;;;18.70;99.90;;;;;;5087486;28;20044;-87
2023/07/30 07:49:54;;;;;;;1.95;1.85;;;18.70;99.90;;;;;;5089092;27;20123;-89
2023/07/30 07:52:20;;;;;;;1.75;1.65;;;18.70;99.90;;;;;;5086844;28;20602;-90
2023/07/30 07:54:46;;;;;;;1.95;1.85;;;18.70;99.90;;;;;;5086200;28;20102;-88
2023/07/30 07:57:12;;;;;;;2.03;1.92;;;18.70;99.90;;;;;;5088778;28;20126;-87
2023/07/30 07:59:37;;;;;;;1.85;1.75;;;18.60;99.90;;;;;;5072737;28;20048;-84
2023/07/30 08:02:03;;;;;;;2.03;1.92;;;18.70;99.90;;;;;;5085302;28;20056;-83
2023/07/30 08:04:29;;;;;;;1.75;1.65;;;18.80;99.90;;;;;;5086746;28;20043;-90
2023/07/30 08:06:59;;;;;;;1.88;1.77;;;18.90;99.90;;;;;;5069199;27;20039;-88
2023/07/30 08:09:25;;;;;;;1.67;1.58;;;19.00;99.90;;;;;;5081060;28;20454;-93
2023/07/30 08:11:51;;;;;;;1.88;1.77;;;19.10;99.90;;;;;;5086123;27;20047;-85
2023/07/30 08:14:16;;;;;;;1.85;1.75;;;19.10;99.90;;;;;;5087049;27;20516;-85
2023/07/30 08:16:42;;;;;;;1.85;1.75;;;19.30;99.90;;;;;;5083671;28;20044;-85
2023/07/30 08:19:08;;;;;;;1.75;1.65;;;19.70;99.90;;;;;;5086106;28;20297;-87
2023/07/30 08:21:33;;;;;;;1.75;1.65;;;19.70;99.90;;;;;;5087732;28;20067;-85
2023/07/30 08:23:59;;;;;;;1.70;1.60;;;19.70;99.90;;;;;;5081895;28;20400;-83
2023/07/30 08:26:24;;;;;;;1.60;1.50;;;19.60;99.90;;;;;;5085354;27;20046;-84
2023/07/30 08:28:50;;;;;;;1.73;1.63;;;19.50;99.90;;;;;;5087613;28;20122;-84
2023/07/30 08:31:16;;;;;;;1.58;1.48;;;19.40;99.90;;;;;;5087473;28;20048;-86
2023/07/30 08:33:41;;;;;;;1.58;1.48;;;19.70;99.90;;;;;;5086424;28;20097;-84
2023/07/30 08:36:07;;;;;;;1.63;1.52;;;20.30;99.90;;;;;;5084002;27;20051;-82
2023/07/30 08:38:33;;;;;;;1.60;1.50;;;20.20;99.90;;;;;;5104124;28;20086;-84
2023/07/30 08:40:58;;;;;;;1.55;1.45;;;20.10;99.90;;;;;;5082582;28;20047;-83
2023/07/30 08:43:24;;;;;;;1.52;1.45;;;20.10;99.90;;;;;;5086937;28;20120;-87
2023/07/30 08:45:50;;;;;;;1.50;1.42;;;20.20;99.90;;;;;;5085748;27;20086;-87
2023/07/30 08:48:16;;;;;;;1.38;1.35;;;20.20;99.90;;;;;;5087261;28;22097;-83
2023/07/30 08:50:42;;;;;;;1.45;1.40;;;20.00;99.90;;;;;;5083795;28;20149;-82
2023/07/30 08:53:08;;;;;;;1.23;1.23;;;20.00;99.90;;;;;;5082412;28;20055;-85
2023/07/30 08:55:35;;;;;;;1.23;1.23;;;20.20;99.90;;;;;;5085020;28;20035;-90
2023/07/30 08:58:04;;;;;;;1.25;1.25;;;20.30;99.90;;;;;;5068501;28;20355;-81
2023/07/30 09:00:40;;;;;;;1.30;1.30;;;20.20;99.90;;;;;;5084313;28;20092;-82
2023/07/30 09:03:07;;;;;;;1.27;1.27;;;20.20;99.90;;;;;;5083964;28;20059;-83
2023/07/30 09:05:32;;;;;;;1.15;1.15;;;20.20;99.90;;;;;;5086059;28;20047;-85
2023/07/30 09:07:58;;;;;;;1.20;1.20;;;20.60;99.90;;;;;;5084036;28;20039;-86
2023/07/30 09:10:26;;;;;;;1.10;1.10;;;20.70;99.90;;;;;;5069121;28;20151;-82
2023/07/30 09:12:57;;;;;;;1.05;1.05;;;20.70;99.90;;;;;;5082909;28;20047;-80
2023/07/30 09:15:34;;;;;;;1.15;1.15;;;20.70;99.90;;;;;;5100402;27;20049;-83
2023/07/30 09:18:01;;;;;;;1.13;1.13;;;20.80;99.90;;;;;;5084117;28;20043;-80
2023/07/30 09:20:27;;;;;;;0.88;0.88;;;20.50;99.90;;;;;;5081293;28;20059;-84
2023/07/30 09:22:55;;;;;;;1.05;1.05;;;20.20;99.90;;;;;;5084236;28;20050;-82
2023/07/30 09:25:21;;;;;;;1.02;1.02;;;20.10;99.90;;;;;;5102612;27;20047;-82
2023/07/30 09:27:53;;;;;;;1.15;1.15;;;20.00;99.90;;;;;;5100936;28;20039;-82
2023/07/30 09:30:27;;;;;;;1.08;1.08;;;19.80;99.90;;;;;;5084753;28;20071;-82
2023/07/30 09:32:54;;;;;;;1.25;1.25;;;19.60;99.90;;;;;;5082974;28;20078;-82
2023/07/30 09:35:20;;;;;;;1.08;1.08;;;19.40;99.90;;;;;;5085037;28;20074;-83
2023/07/30 09:37:46;;;;;;;1.23;1.23;;;19.30;99.90;;;;;;5082992;28;20047;-84
2023/07/30 09:40:14;;;;;;;1.08;1.08;;;19.40;99.90;;;;;;5082919;28;20051;-83
2023/07/30 09:42:45;;;;;;;1.17;1.17;;;19.40;99.90;;;;;;5100006;28;20942;-85
2023/07/30 09:45:21;;;;;;;1.17;1.17;;;19.20;99.90;;;;;;5076548;28;20093;-86
2023/07/30 09:47:48;;;;;;;1.08;1.08;;;19.20;99.90;;;;;;5065621;28;20480;-90
2023/07/30 09:50:15;;;;;;;1.08;1.08;;;19.10;99.90;;;;;;5085265;28;20047;-92
2023/07/30 09:52:42;;;;;;;1.17;1.17;;;18.90;99.90;;;;;;5069273;28;20047;-89
2023/07/30 09:55:09;;;;;;;1.17;1.17;;;19.30;99.90;;;;;;5067301;28;20544;-89
2023/07/30 09:57:34;;;;;;;1.25;1.25;;;19.70;99.90;;;;;;5069972;28;20054;-85
2023/07/30 10:00:01;;;;;;;1.13;1.13;;;20.00;99.90;;;;;;5083825;28;20431;-83
2023/07/30 10:02:31;;;;;;;1.40;1.35;;;20.50;99.90;;;;;;5082931;28;20782;-89
2023/07/30 10:05:00;;;;;;;1.52;1.45;;;20.40;99.90;;;;;;5082906;28;20036;-84
2023/07/30 10:07:27;;;;;;;1.48;1.42;;;20.20;99.90;;;;;;5084060;28;20043;-84
2023/07/30 10:09:58;;;;;;;1.17;1.17;;;20.30;99.90;;;;;;5083360;28;20062;-81
2023/07/30 10:12:34;;;;;;;1.25;1.25;;;20.20;99.90;;;;;;5081833;28;20050;-78
2023/07/30 10:15:01;;;;;;;1.30;1.30;;;19.80;99.90;;;;;;5083841;28;20205;-83
2023/07/30 10:17:28;;;;;;;1.15;1.15;;;19.60;99.90;;;;;;5079235;28;20047;-81
2023/07/30 10:19:54;;;;;;;1.20;1.20;;;19.70;99.90;;;;;;5099641;28;20059;-82
2023/07/30 10:22:22;;;;;;;1.08;1.08;;;19.70;99.90;;;;;;5083034;28;20411;-83
2023/07/30 10:25:03;;;;;;;1.15;1.15;;;20.00;99.90;;;;;;5097662;28;20568;-78
2023/07/30 10:27:50;;;;;;;1.15;1.15;;;20.10;99.90;;;;;;5102520;28;20051;-82
2023/07/30 10:30:19;;;;;;;1.17;1.17;;;20.40;99.90;;;;;;5099919;28;20641;-81
2023/07/30 10:32:59;;;;;;;1.15;1.15;;;20.70;99.90;;;;;;5084459;28;20054;-80
2023/07/30 10:35:43;;;;;;;1.08;1.08;;;20.60;99.90;;;;;;5084042;28;20103;-82
2023/07/30 10:38:28;;;;;;;1.10;1.10;;;20.70;99.90;;;;;;5098505;28;20089;-80
2023/07/30 10:40:59;;;;;;;0.98;0.98;;;20.40;99.90;;;;;;5099451;28;20039;-80
2023/07/30 10:43:30;;;;;;;1.02;1.02;;;20.40;99.90;;;;;;5102763;28;20044;-86
2023/07/30 10:45:56;;;;;;;1.02;1.02;;;20.20;99.90;;;;;;5064475;28;20508;-88
2023/07/30 10:48:36;;;;;;;0.95;0.95;;;20.30;99.90;;;;;;5067370;28;20039;-83
2023/07/30 10:51:04;;;;;;;1.05;1.05;;;21.30;99.90;;;;;;5082393;28;20563;-86
2023/07/30 10:53:30;;;;;;;1.00;1.00;;;21.10;99.90;;;;;;5064289;28;20658;-84
2023/07/30 10:56:00;;;;;;;1.10;1.10;;;20.90;99.90;;;;;;5083051;28;20050;-82
2023/07/30 10:58:26;;;;;;;1.00;1.00;;;21.20;99.90;;;;;;5087837;27;20054;-85
2023/07/30 11:00:53;;;;;;;1.10;1.10;;;21.50;99.90;;;;;;5082578;28;20048;-87
2023/07/30 11:03:18;;;;;;;1.15;1.15;;;21.20;99.90;;;;;;5083481;28;20130;-81
2023/07/30 11:05:48;;;;;;;0.77;0.77;;;21.10;99.90;;;;;;5107361;27;20453;-80
2023/07/30 11:08:15;;;;;;;1.05;1.05;;;20.70;99.90;;;;;;5103485;28;20040;-83
2023/07/30 11:10:47;;;;;;;1.05;1.05;;;20.70;99.90;;;;;;5088535;28;20054;-82
2023/07/30 11:13:14;;;;;;;1.02;1.02;;;21.20;99.90;;;;;;5084845;28;20522;-81
2023/07/30 11:15:43;;;;;;;1.00;1.00;;;21.60;99.90;;;;;;5107505;27;20036;-83
2023/07/30 11:18:11;;;;;;;1.05;1.05;;;21.70;99.90;;;;;;5087224;28;20096;-82
2023/07/30 11:20:37;;;;;;;1.08;1.08;;;22.20;99.90;;;;;;5071828;28;20399;-84
2023/07/30 11:23:03;;;;;;;1.10;1.10;;;22.60;99.90;;;;;;5064796;27;20556;-83
2023/07/30 11:25:28;;;;;;;1.23;1.17;;;21.90;99.90;;;;;;5097085;27;20181;-77
2023/07/30 11:27:54;;;;;;;0.88;0.88;;;21.10;99.90;;;;;;5098338;28;20048;-82
2023/07/30 11:30:20;;;;;;;0.75;0.75;;;20.70;99.90;;;;;;5100213;27;20051;-80
2023/07/30 11:32:45;;;;;;;0.73;0.73;;;20.40;99.90;;;;;;5100866;28;20142;-82
2023/07/30 11:35:13;;;;;;;0.80;0.80;;;20.60;99.90;;;;;;5097980;27;20063;-85
2023/07/30 11:37:42;;;;;;;0.75;0.75;;;20.70;99.90;;;;;;5099746;27;20044;-81
2023/07/30 11:40:09;;;;;;;0.80;0.80;;;21.50;99.90;;;;;;5081692;28;20536;-82
2023/07/30 11:42:39;;;;;;;0.80;0.80;;;22.00;99.90;;;;;;5081128;28;20510;-83
2023/07/30 11:45:22;;;;;;;0.70;0.70;;;22.20;99.90;;;;;;5102122;28;20047;-80
2023/07/30 11:47:48;;;;;;;0.65;0.65;;;22.40;99.90;;;;;;5079467;28;20404;-82
2023/07/30 11:50:14;;;;;;;0.65;0.65;;;22.40;99.90;;;;;;5079606;27;20055;-83
2023/07/30 11:52:56;;;;;;;0.60;0.60;;;22.60;99.90;;;;;;5097727;28;20127;-85
2023/07/30 11:55:24;;;;;;;0.60;0.60;;;22.90;99.90;;;;;;5082654;28;21073;-87
2023/07/30 11:57:50;;;;;;;0.50;0.50;;;22.60;99.90;;;;;;5081164;28;20773;-83
2023/07/30 12:00:20;;;;;;;0.60;0.60;;;22.30;99.90;;;;;;5083981;28;20126;-82
2023/07/30 12:02:46;;;;;;;0.77;0.77;;;22.80;99.90;;;;;;5078402;28;20140;-83
2023/07/30 12:05:12;;;;;;;0.80;0.80;;;23.00;99.90;;;;;;5100588;28;20527;-82
2023/07/30 12:07:43;;;;;;;0.90;0.90;;;23.50;99.90;;;;;;5082093;28;20134;-84
2023/07/30 12:10:11;;;;;;;1.00;1.00;;;23.30;99.90;;;;;;5101663;28;20055;-84
2023/07/30 12:12:36;;;;;;;1.00;1.00;;;23.10;99.90;;;;;;5084514;28;20103;-84
2023/07/30 12:15:12;;;;;;;0.90;0.90;;;22.50;99.90;;;;;;5082361;28;20059;-87
2023/07/30 12:17:38;;;;;;;1.00;1.00;;;23.20;99.90;;;;;;5082906;27;20107;-82
2023/07/30 12:20:06;;;;;;;1.00;1.00;;;23.80;99.90;;;;;;5079471;28;20059;-86
2023/07/30 12:22:34;;;;;;;0.70;0.70;;;23.90;99.90;;;;;;5080172;28;20108;-87
2023/07/30 12:25:02;;;;;;;0.45;0.45;;;23.90;99.90;;;;;;5082537;27;20130;-84
2023/07/30 12:27:27;;;;;;;0.60;0.60;;;23.90;99.90;;;;;;5103203;27;20108;-85
2023/07/30 12:29:53;;;;;;;0.30;0.30;;;22.90;99.90;;;;;;5081990;28;20043;-91
2023/07/30 12:32:19;;;;;;;0.68;0.68;;;22.20;99.90;;;;;;5083336;28;20094;-83
2023/07/30 12:34:44;;;;;;;0.43;0.43;;;22.00;99.90;;;;;;5080774;28;20047;-81
2023/07/30 12:37:10;;;;;;;0.50;0.50;;;21.30;99.90;;;;;;5102161;28;20799;-81
2023/07/30 12:39:35;;;;;;;0.40;0.40;;;20.40;99.90;;;;;;5102550;27;20076;-86
2023/07/30 12:42:01;;;;;;;0.57;0.57;;;20.20;99.90;;;;;;5079709;28;20116;-86
2023/07/30 12:44:27;;;;;;;0.50;0.50;;;20.90;99.90;;;;;;5083861;28;20053;-84
2023/07/30 12:46:53;;;;;;;0.68;0.68;;;20.90;99.90;;;;;;5083710;28;20043;-86